Estación Meteorológica Peña el Pijo (Robertgarden) [ 11/20/17 01:25:17 CET ]

Fecha Hora Presion(HPa) Temp (°C) Humedad % Rocio (°C) Viento ( m/s) Direccion Lluvia 1Hora(mm) Lluvia 24H(mm) LLuvia Total(mm)
2017-Nov-01 01:01:51 1013.300 4.8 83 2.1         1466.45
2017-Nov-01 02:01:45 1013.100 4.3 84 1.8         1466.45
2017-Nov-01 03:03:08 1013.400 3.8 85 1.5         1466.45
2017-Nov-01 04:01:31 1012.800 3.3 86 1.2         1466.45
2017-Nov-01 05:01:33 1012.900 2.9 86 0.8         1466.45
2017-Nov-01 06:01:41 1012.600 2.8 86 0.7         1466.45
2017-Nov-01 07:01:46 1013.000 2.6 87 0.6         1466.45
2017-Nov-01 08:01:52 1013.200 2.8 87 0.8         1466.45
2017-Nov-01 09:01:58 1013.600 6.6 90 5.1         1466.45
2017-Nov-01 10:01:57 1013.800 13.5 87 11.4         1466.45
2017-Nov-01 11:02:07 1013.400 18.9 61 11.2         1466.45
2017-Nov-01 12:01:44 1013.000 19.8 48 8.5         1466.45
2017-Nov-01 13:02:02 1012.300 20.3 45 7.9 0.7 WNW     1466.45
2017-Nov-01 14:01:46 1011.600 21.2 44 8.4         1466.45
2017-Nov-01 15:01:47 1011.000 21.4 42 7.9         1466.45
2017-Nov-01 16:01:43 1010.600 20.8 44 8.0         1466.45
2017-Nov-01 17:01:46 1010.600 19.3 49 8.3         1466.45
2017-Nov-01 18:01:43 1011.100 15.8 61 8.3         1466.45
2017-Nov-01 19:01:43 1011.700 14.2 68 8.3         1466.45
2017-Nov-01 20:01:43 1012.000 11.4 72 6.5         1466.45
2017-Nov-01 21:01:38 1012.300 9.0 76 4.9         1466.45
2017-Nov-01 22:01:41 1012.700 7.4 79 4.1         1466.45
2017-Nov-01 23:01:34 1012.900 6.2 81 3.2         1466.45

Temperatura Máxima:21°    Temperatura Mínima:
Presión Máxima:1013.800 Hpa    Presión Mínima:1010.600 Hpa


Volver